Time;durP1;ratioP1;P1;durP2;ratioP2;P2;SDS_P1;SDS_P2;PMS_P1;PMS_P2;Temp;Humidity;BMP_temperature;BMP_pressure;BME280_temperature;BME280_humidity;BME280_pressure;Samples;Min_cycle;Max_cycle;Signal;HPM_P1;HPM_P2
2022/04/20 00:00:20;;;;;;;6.63;5.90;;;;;;;0.97;70.94;94463.56;5127842;27;20019;-69
2022/04/20 00:02:46;;;;;;;7.38;5.93;;;;;;;0.95;71.72;94466.22;5103019;27;20120;-69
2022/04/20 00:05:12;;;;;;;7.45;6.03;;;;;;;0.91;71.30;94476.66;5133737;27;20030;-69
2022/04/20 00:07:37;;;;;;;6.95;6.20;;;;;;;0.91;71.45;94474.94;5094539;28;20040;-69
2022/04/20 00:10:04;;;;;;;9.05;6.82;;;;;;;0.87;71.74;94474.28;5113429;27;20027;-69
2022/04/20 00:12:30;;;;;;;7.68;6.43;;;;;;;0.82;71.81;94476.22;5125056;27;20050;-69
2022/04/20 00:14:55;;;;;;;9.75;6.10;;;;;;;0.88;71.93;94472.53;5111774;28;20070;-69
2022/04/20 00:17:20;;;;;;;7.88;6.05;;;;;;;0.82;72.10;94471.13;5114145;27;20036;-69
2022/04/20 00:19:46;;;;;;;6.35;5.45;;;;;;;0.89;72.35;94475.03;5129655;27;20508;-69
2022/04/20 00:22:11;;;;;;;6.85;5.70;;;;;;;0.91;71.60;94479.22;5121448;27;20035;-69
2022/04/20 00:24:37;;;;;;;7.78;6.40;;;;;;;0.93;71.86;94483.38;5116424;27;20023;-69
2022/04/20 00:27:02;;;;;;;7.70;6.60;;;;;;;0.94;72.00;94474.78;5123048;27;20036;-69
2022/04/20 00:29:28;;;;;;;7.18;6.35;;;;;;;0.93;71.63;94474.88;5122660;27;20611;-69
2022/04/20 00:31:53;;;;;;;7.03;6.20;;;;;;;0.94;71.69;94472.22;5111030;28;20046;-69
2022/04/20 00:34:18;;;;;;;6.70;6.00;;;;;;;0.97;71.69;94471.25;5127798;27;20031;-69
2022/04/20 00:36:44;;;;;;;7.55;6.70;;;;;;;0.93;71.72;94462.09;5113770;27;20516;-69
2022/04/20 00:39:09;;;;;;;8.27;6.50;;;;;;;0.96;71.36;94472.16;5117514;27;20049;-69
2022/04/20 00:41:35;;;;;;;7.30;6.30;;;;;;;0.98;72.00;94473.72;5103489;27;20024;-69
2022/04/20 00:44:01;;;;;;;8.32;6.47;;;;;;;0.97;71.72;94464.38;5129946;27;20516;-69
2022/04/20 00:46:26;;;;;;;7.75;5.93;;;;;;;1.00;71.31;94459.13;5102231;28;20035;-69
2022/04/20 00:48:52;;;;;;;7.53;6.28;;;;;;;0.96;71.11;94454.25;5125836;27;20042;-69
2022/04/20 00:51:17;;;;;;;7.93;6.35;;;;;;;0.99;70.51;94461.75;5127792;27;20039;-69
2022/04/20 00:53:43;;;;;;;8.15;6.53;;;;;;;1.00;70.54;94450.63;5112292;28;20036;-69
2022/04/20 00:56:08;;;;;;;7.60;6.80;;;;;;;0.98;70.93;94453.28;5123418;27;20039;-69
2022/04/20 00:58:37;;;;;;;10.07;8.40;;;;;;;0.91;71.13;94462.16;5094010;28;20019;-69
2022/04/20 01:01:03;;;;;;;9.45;7.95;;;;;;;0.96;70.65;94456.81;5111686;28;20115;-69
2022/04/20 01:03:28;;;;;;;9.10;7.90;;;;;;;0.92;71.65;94445.06;5126044;27;20031;-69
2022/04/20 01:05:53;;;;;;;9.00;8.10;;;;;;;0.91;71.48;94446.81;5128684;27;20038;-69
2022/04/20 01:08:19;;;;;;;10.20;7.93;;;;;;;0.93;71.44;94454.41;5113454;27;20047;-69
2022/04/20 01:10:44;;;;;;;8.88;7.20;;;;;;;0.90;71.02;94447.72;5124685;27;20032;-69
2022/04/20 01:13:10;;;;;;;8.15;7.28;;;;;;;0.86;71.31;94454.72;5111755;28;20039;-69
2022/04/20 01:15:35;;;;;;;8.45;7.15;;;;;;;0.82;71.44;94447.28;5116419;27;20465;-69
2022/04/20 01:18:10;;;;;;;8.55;7.05;;;;;;;0.82;71.76;94455.78;5131256;27;20468;-69
2022/04/20 01:20:35;;;;;;;8.50;7.55;;;;;;;0.80;71.76;94452.47;5125886;27;20031;-69
2022/04/20 01:23:01;;;;;;;7.30;6.50;;;;;;;0.77;71.89;94447.50;5110613;28;20020;-69
2022/04/20 01:25:26;;;;;;;6.90;6.20;;;;;;;0.74;71.93;94450.22;5112814;27;20027;-69
2022/04/20 01:27:52;;;;;;;6.13;5.43;;;;;;;0.73;72.46;94448.56;5112471;27;20477;-69
2022/04/20 01:30:17;;;;;;;6.45;5.25;;;;;;;0.79;72.70;94455.09;5111510;27;20031;-69
2022/04/20 01:32:43;;;;;;;7.38;5.70;;;;;;;0.84;72.24;94455.72;5120085;27;20027;-69
2022/04/20 01:35:09;;;;;;;6.15;5.55;;;;;;;0.80;73.09;94466.97;5129095;27;20409;-69
2022/04/20 01:37:34;;;;;;;6.60;5.65;;;;;;;0.81;73.38;94464.34;5124539;27;20035;-69
2022/04/20 01:40:00;;;;;;;10.43;5.90;;;;;;;0.67;72.85;94461.66;5115447;27;20019;-69
2022/04/20 01:42:25;;;;;;;7.22;5.72;;;;;;;0.76;73.42;94470.59;5122358;27;20035;-70
2022/04/20 01:44:51;;;;;;;6.30;5.55;;;;;;;0.72;72.68;94463.97;5125126;27;20027;-69
2022/04/20 01:47:16;;;;;;;7.10;5.53;;;;;;;0.67;72.59;94459.13;5113164;27;20035;-69
2022/04/20 01:49:42;;;;;;;6.47;5.63;;;;;;;0.69;72.62;94467.50;5126455;27;20471;-69
2022/04/20 01:52:07;;;;;;;6.93;5.93;;;;;;;0.71;72.68;94463.16;5114182;27;20173;-69
2022/04/20 01:54:33;;;;;;;10.15;6.68;;;;;;;0.76;72.71;94473.16;5122436;28;20059;-71
2022/04/20 01:56:58;;;;;;;8.15;6.68;;;;;;;0.78;72.89;94468.78;5119368;28;20047;-69
2022/04/20 01:59:24;;;;;;;7.72;6.28;;;;;;;0.78;72.91;94468.78;5129445;27;20072;-69
2022/04/20 02:04:52;;;;;;;6.55;5.57;;;;;;;0.80;72.81;94467.81;5108002;28;20285;-69
2022/04/20 02:07:18;;;;;;;6.85;6.05;;;;;;;0.77;72.93;94472.25;5074390;28;20036;-69
2022/04/20 02:09:43;;;;;;;7.10;6.32;;;;;;;0.75;73.00;94474.88;5098370;28;20425;-69
2022/04/20 02:12:09;;;;;;;7.70;5.70;;;;;;;0.78;72.32;94479.84;5129042;28;20633;-70
2022/04/20 02:14:34;;;;;;;7.57;6.25;;;;;;;0.83;72.59;94483.00;5123820;28;20031;-69
2022/04/20 02:17:00;;;;;;;7.18;6.10;;;;;;;0.79;72.40;94481.50;5124119;27;20405;-69
2022/04/20 02:19:25;;;;;;;6.80;5.93;;;;;;;0.74;72.32;94483.47;5121295;27;20076;-70
2022/04/20 02:21:51;;;;;;;8.00;6.45;;;;;;;0.68;72.43;94470.97;5097239;28;20409;-70
2022/04/20 02:24:16;;;;;;;6.70;5.97;;;;;;;0.77;72.30;94473.06;5096810;28;20513;-69
2022/04/20 02:26:42;;;;;;;7.28;6.57;;;;;;;0.68;72.49;94455.63;5116271;27;20241;-69
2022/04/20 02:29:07;;;;;;;7.15;6.40;;;;;;;0.72;72.48;94469.91;5097277;27;20115;-69
2022/04/20 02:31:32;;;;;;;8.23;6.78;;;;;;;0.72;72.38;94471.66;5109022;28;20504;-69
2022/04/20 02:33:58;;;;;;;8.07;6.80;;;;;;;0.67;72.25;94451.44;5122200;27;20511;-69
2022/04/20 02:36:23;;;;;;;9.38;7.65;;;;;;;0.59;72.58;94459.47;5106491;28;20500;-69
2022/04/20 02:38:49;;;;;;;10.60;8.55;;;;;;;0.57;73.52;94455.34;5112899;28;20031;-69
2022/04/20 02:41:15;;;;;;;11.20;8.60;;;;;;;0.43;73.56;94441.50;5129377;27;20555;-69
2022/04/20 02:43:40;;;;;;;9.93;8.27;;;;;;;0.46;73.11;94460.16;5131868;27;20080;-69
2022/04/20 02:46:06;;;;;;;9.65;8.20;;;;;;;0.51;73.22;94468.44;5116679;27;20027;-70
2022/04/20 02:48:34;;;;;;;14.48;10.23;;;;;;;0.36;73.72;94442.72;5115683;27;20032;-69
2022/04/20 02:51:00;;;;;;;12.82;10.65;;;;;;;0.33;73.89;94465.84;5116560;27;20042;-70
2022/04/20 02:53:25;;;;;;;16.50;11.85;;;;;;;0.31;74.41;94469.41;5124416;27;20019;-69
2022/04/20 02:55:51;;;;;;;17.30;11.65;;;;;;;0.37;74.49;94462.25;5122590;27;20032;-69
2022/04/20 02:58:16;;;;;;;12.07;9.88;;;;;;;0.38;73.98;94456.25;5123353;27;20080;-69
2022/04/20 03:00:43;;;;;;;11.73;10.02;;;;;;;0.35;74.11;94488.78;5125188;27;20020;-69
2022/04/20 03:03:08;;;;;;;17.15;12.50;;;;;;;0.35;74.04;94461.50;5122139;27;20035;-70
2022/04/20 03:05:34;;;;;;;16.63;12.50;;;;;;;0.36;74.12;94455.50;5117391;27;20063;-69
2022/04/20 03:07:59;;;;;;;17.05;12.85;;;;;;;0.41;74.16;94479.09;5115650;27;20035;-69
2022/04/20 03:10:25;;;;;;;17.10;12.98;;;;;;;0.48;74.15;94471.16;5112174;28;20024;-69
2022/04/20 03:12:51;;;;;;;14.65;11.85;;;;;;;0.43;74.38;94484.13;5113951;27;20043;-69
2022/04/20 03:15:17;;;;;;;12.98;9.88;;;;;;;0.48;73.00;94484.75;5124523;27;20028;-69
2022/04/20 03:17:42;;;;;;;11.68;10.02;;;;;;;0.36;73.33;94478.50;5112664;27;20040;-69
2022/04/20 03:20:08;;;;;;;13.93;9.60;;;;;;;0.37;73.01;94480.16;5118588;27;20496;-69
2022/04/20 03:22:33;;;;;;;11.05;9.32;;;;;;;0.34;73.81;94482.84;5116110;27;20039;-69
2022/04/20 03:24:59;;;;;;;12.90;10.30;;;;;;;0.27;73.94;94484.03;5131454;27;20038;-69
2022/04/20 03:27:24;;;;;;;11.98;10.00;;;;;;;0.32;74.29;94487.22;5113662;27;20042;-69
2022/04/20 03:29:49;;;;;;;11.50;9.93;;;;;;;0.25;74.12;94474.78;5121859;27;20020;-69
2022/04/20 03:32:15;;;;;;;13.38;10.90;;;;;;;0.28;74.63;94498.50;5130077;27;20069;-69
2022/04/20 03:34:40;;;;;;;13.20;11.30;;;;;;;0.33;74.90;94486.28;5115452;27;20076;-69
2022/04/20 03:37:06;;;;;;;11.90;10.15;;;;;;;0.37;74.25;94462.25;5117877;27;20032;-69
2022/04/20 03:39:32;;;;;;;12.32;10.35;;;;;;;0.29;74.90;94477.13;5114784;27;20039;-69
2022/04/20 03:41:58;;;;;;;13.38;10.93;;;;;;;0.28;75.43;94460.16;5113286;27;20110;-69
2022/04/20 03:44:23;;;;;;;12.40;10.35;;;;;;;0.36;75.61;94463.19;5127479;27;20084;-69
2022/04/20 03:46:49;;;;;;;12.27;10.52;;;;;;;0.38;75.57;94466.47;5113645;27;20474;-69
2022/04/20 03:49:14;;;;;;;13.02;10.73;;;;;;;0.44;75.80;94468.72;5108929;28;20039;-69
2022/04/20 03:51:40;;;;;;;14.13;11.10;;;;;;;0.42;75.60;94460.31;5114986;27;20455;-69
2022/04/20 03:54:06;;;;;;;14.75;12.35;;;;;;;0.47;75.86;94464.38;5113993;27;20039;-69
2022/04/20 03:57:03;;;;;;;21.80;14.75;;;;;;;0.54;76.10;94464.00;5114051;27;20042;-70
2022/04/20 03:59:16;;;;;;;28.00;18.67;;;;;;;0.46;75.79;94462.72;5132096;27;20133;-69
2022/04/20 04:01:42;;;;;;;42.60;29.88;;;;;;;0.50;75.97;94464.22;5132216;27;20054;-69
2022/04/20 04:04:07;;;;;;;31.35;23.35;;;;;;;0.51;75.63;94460.78;5111288;28;20088;-69
2022/04/20 04:06:33;;;;;;;31.75;23.30;;;;;;;0.62;75.46;94476.41;5115711;27;20039;-69
2022/04/20 04:08:59;;;;;;;27.52;21.10;;;;;;;0.69;74.84;94459.84;5132330;27;20576;-69
2022/04/20 04:11:24;;;;;;;32.33;22.45;;;;;;;0.72;74.56;94449.47;5093832;28;20044;-69
2022/04/20 04:13:50;;;;;;;34.03;23.25;;;;;;;0.70;74.56;94456.41;5129534;27;20493;-69
2022/04/20 04:16:15;;;;;;;30.17;21.63;;;;;;;0.69;74.91;94451.34;5117439;27;20027;-69
2022/04/20 04:18:40;;;;;;;33.42;20.05;;;;;;;0.74;74.69;94445.09;5130275;27;20019;-69
2022/04/20 04:21:06;;;;;;;25.90;18.77;;;;;;;0.85;75.13;94445.38;5129539;27;20057;-69
2022/04/20 04:23:31;;;;;;;27.80;19.88;;;;;;;0.91;75.53;94444.25;5083048;27;20461;-69
2022/04/20 04:25:56;;;;;;;22.48;17.55;;;;;;;0.98;74.96;94443.03;5130193;27;20028;-69
2022/04/20 04:28:22;;;;;;;22.67;17.40;;;;;;;1.06;75.09;94433.25;5120145;27;20154;-69
2022/04/20 04:30:48;;;;;;;21.33;16.52;;;;;;;1.14;75.15;94437.94;5129612;27;20035;-69
2022/04/20 04:33:14;;;;;;;25.65;19.42;;;;;;;1.06;74.55;94428.13;5114924;27;20058;-69
2022/04/20 04:35:39;;;;;;;28.13;19.55;;;;;;;1.11;74.71;94431.28;5131856;27;20102;-69
2022/04/20 04:38:04;;;;;;;27.42;20.17;;;;;;;1.24;75.10;94431.44;5127078;27;20031;-69
2022/04/20 04:40:31;;;;;;;26.45;19.40;;;;;;;1.32;74.46;94425.94;5115770;27;20065;-69
2022/04/20 04:42:56;;;;;;;25.88;19.83;;;;;;;1.42;74.30;94423.69;5098278;27;20019;-69
2022/04/20 04:50:50;;;;;;;23.40;17.65;;;;;;;1.66;73.86;94447.16;5131705;27;20038;-69
2022/04/20 04:53:15;;;;;;;19.90;15.82;;;;;;;1.68;73.73;94443.63;5114589;27;20027;-69
2022/04/20 04:55:41;;;;;;;21.20;16.30;;;;;;;1.66;73.72;94436.91;5122855;27;20019;-69
2022/04/20 04:58:06;;;;;;;20.65;15.55;;;;;;;1.75;73.80;94454.34;5112168;28;20028;-69
2022/04/20 05:00:32;;;;;;;21.60;16.10;;;;;;;1.77;73.67;94443.09;5110921;28;20027;-69
2022/04/20 05:02:57;;;;;;;21.17;16.42;;;;;;;1.78;73.22;94424.28;5110980;28;20033;-69
2022/04/20 05:05:23;;;;;;;20.90;16.40;;;;;;;1.88;73.00;94439.16;5114270;27;20023;-69
2022/04/20 05:07:54;;;;;;;28.17;22.50;;;;;;;1.83;73.24;94424.03;5132873;27;20189;-69
2022/04/20 05:10:22;;;;;;;29.20;22.63;;;;;;;2.00;73.21;94453.84;5131262;27;20046;-69
2022/04/20 05:12:48;;;;;;;29.15;23.67;;;;;;;2.00;72.42;94457.22;5129576;27;20055;-72
2022/04/20 05:15:13;;;;;;;25.85;18.90;;;;;;;2.11;72.73;94455.81;5116157;27;20035;-69
2022/04/20 05:17:39;;;;;;;25.60;18.42;;;;;;;2.02;72.29;94439.22;5129969;27;20027;-70
2022/04/20 05:20:05;;;;;;;26.83;18.67;;;;;;;2.17;73.15;94456.31;5114019;27;20031;-69
2022/04/20 05:22:30;;;;;;;20.92;16.92;;;;;;;2.07;72.99;94437.22;5132128;27;20026;-69
2022/04/20 05:24:56;;;;;;;23.27;17.75;;;;;;;2.21;72.68;94464.66;5132233;27;20579;-69
2022/04/20 05:27:21;;;;;;;24.17;18.30;;;;;;;2.22;72.65;94450.91;5132591;27;20031;-69
2022/04/20 05:29:47;;;;;;;21.73;16.83;;;;;;;2.26;72.28;94462.66;5109575;28;20032;-69
2022/04/20 05:32:12;;;;;;;21.63;16.48;;;;;;;2.29;72.38;94475.31;5082039;28;20031;-69
2022/04/20 05:34:38;;;;;;;24.15;18.17;;;;;;;2.28;71.43;94480.50;5111585;28;20028;-70
2022/04/20 05:42:34;;;;;;;24.00;16.95;;;;;;;2.18;71.43;94464.81;5114111;27;20409;-69
2022/04/20 05:45:00;;;;;;;23.48;16.95;;;;;;;2.26;71.77;94483.16;5125192;27;20027;-69
2022/04/20 05:47:25;;;;;;;25.38;15.85;;;;;;;2.26;72.35;94490.84;5130631;27;20047;-69
2022/04/20 05:49:51;;;;;;;20.75;16.23;;;;;;;2.29;72.15;94487.28;5123844;27;20111;-69
2022/04/20 05:52:16;;;;;;;22.38;16.95;;;;;;;2.24;72.02;94480.69;5113354;27;20038;-69
2022/04/20 05:54:42;;;;;;;21.60;15.85;;;;;;;2.34;71.91;94498.09;5116841;28;20027;-69
2022/04/20 05:57:07;;;;;;;22.05;16.15;;;;;;;2.33;72.27;94488.75;5102627;28;20043;-70
2022/04/20 05:59:33;;;;;;;20.95;15.88;;;;;;;2.34;71.91;94498.09;5119115;27;20035;-69
2022/04/20 06:01:58;;;;;;;22.67;16.50;;;;;;;2.39;71.87;94504.63;5125903;28;20044;-70
2022/04/20 06:04:25;;;;;;;24.35;16.40;;;;;;;2.46;72.16;94511.06;5117084;28;20027;-70
2022/04/20 06:06:50;;;;;;;24.70;17.50;;;;;;;2.47;72.00;94504.19;5120291;28;20035;-70
2022/04/20 06:09:15;;;;;;;30.00;17.48;;;;;;;2.52;71.83;94509.91;5116451;28;20026;-69
2022/04/20 06:11:41;;;;;;;25.17;17.33;;;;;;;2.52;72.24;94502.22;5109840;28;20059;-69
2022/04/20 06:14:07;;;;;;;23.20;16.45;;;;;;;2.61;71.46;94511.94;5111180;28;20099;-69
2022/04/20 06:16:32;;;;;;;21.88;14.95;;;;;;;2.64;71.43;94519.47;5112028;28;20057;-69
2022/04/20 06:18:57;;;;;;;20.58;15.60;;;;;;;2.71;71.38;94511.44;5112375;28;20035;-69
2022/04/20 06:21:23;;;;;;;21.90;15.27;;;;;;;2.73;71.04;94497.63;5113240;28;20027;-69
2022/04/20 06:23:48;;;;;;;20.98;15.07;;;;;;;2.76;70.93;94494.03;5113199;28;20030;-69
2022/04/20 06:26:14;;;;;;;21.48;15.68;;;;;;;2.75;71.38;94484.69;5131629;27;20039;-70
2022/04/20 06:28:39;;;;;;;23.40;17.00;;;;;;;2.86;71.17;94502.84;5131602;27;20080;-69
2022/04/20 06:31:05;;;;;;;26.08;18.38;;;;;;;2.79;71.81;94494.69;5130319;28;20103;-69
2022/04/20 06:33:31;;;;;;;22.55;17.38;;;;;;;2.83;71.53;94493.59;5130286;27;20023;-69
2022/04/20 06:35:58;;;;;;;27.38;19.52;;;;;;;2.86;71.32;94488.28;5130145;28;20044;-69
2022/04/20 06:38:23;;;;;;;27.73;19.38;;;;;;;2.91;71.62;94486.28;5131433;27;20098;-69
2022/04/20 06:40:49;;;;;;;30.08;21.95;;;;;;;2.98;71.72;94491.03;5130090;28;20087;-69
2022/04/20 06:43:15;;;;;;;29.83;20.60;;;;;;;2.99;71.17;94483.28;5113168;28;20031;-69
2022/04/20 06:45:40;;;;;;;36.38;23.77;;;;;;;2.98;71.22;94480.78;5130213;28;20096;-69
2022/04/20 06:48:06;;;;;;;34.17;20.25;;;;;;;3.04;71.07;94486.41;5130108;28;20027;-69
2022/04/20 06:50:31;;;;;;;117.88;62.33;;;;;;;3.06;71.50;94494.81;5131306;27;20115;-69
2022/04/20 06:58:35;;;;;;;44.08;29.42;;;;;;;3.11;72.12;94503.06;5131573;28;20046;-69
2022/04/20 07:01:04;;;;;;;38.55;26.35;;;;;;;3.10;71.76;94477.50;5130143;27;20516;-69
2022/04/20 07:03:29;;;;;;;29.02;22.45;;;;;;;3.06;71.92;94474.28;5134441;27;20031;-69
2022/04/20 07:05:55;;;;;;;31.83;21.58;;;;;;;3.06;72.69;94478.59;5133720;27;20469;-69
2022/04/20 07:08:22;;;;;;;30.75;21.08;;;;;;;3.00;72.78;94473.81;5134921;27;20031;-70
2022/04/20 07:10:47;;;;;;;28.27;20.95;;;;;;;3.05;72.32;94479.53;5134619;27;20034;-69
2022/04/20 07:13:13;;;;;;;30.60;21.80;;;;;;;3.09;71.91;94476.69;5116496;27;20023;-70
2022/04/20 07:15:39;;;;;;;29.05;21.67;;;;;;;3.10;72.56;94472.38;5133507;27;20019;-72
2022/04/20 07:18:05;;;;;;;27.83;21.08;;;;;;;3.09;71.84;94476.69;5134710;27;20116;-69
2022/04/20 07:20:31;;;;;;;26.48;20.67;;;;;;;3.04;71.83;94480.44;5133602;27;20042;-69
2022/04/20 07:22:56;;;;;;;33.10;22.70;;;;;;;3.04;72.01;94488.97;5134409;27;20469;-69
2022/04/20 07:25:22;;;;;;;27.60;22.65;;;;;;;3.14;72.34;94492.63;5116336;27;20031;-69
2022/04/20 07:27:48;;;;;;;29.75;23.30;;;;;;;3.19;72.35;94488.97;5133436;27;20059;-69
2022/04/20 07:30:15;;;;;;;27.70;21.25;;;;;;;3.19;72.28;94494.13;5133227;27;20027;-69
2022/04/20 07:32:40;;;;;;;27.98;22.77;;;;;;;3.21;72.22;94494.84;5134806;27;20031;-69
2022/04/20 07:35:06;;;;;;;28.55;21.10;;;;;;;3.24;72.02;94494.66;5133189;27;20064;-69
2022/04/20 07:37:31;;;;;;;31.15;23.48;;;;;;;3.32;72.81;94495.03;5133246;27;20507;-69
2022/04/20 07:39:57;;;;;;;30.27;23.08;;;;;;;3.31;72.46;94483.09;5134315;27;20027;-69
2022/04/20 07:42:23;;;;;;;29.33;24.23;;;;;;;3.39;72.44;94496.31;5116081;27;20043;-69
2022/04/20 07:44:48;;;;;;;38.10;25.35;;;;;;;3.42;72.50;94491.00;5133175;27;20031;-70
2022/04/20 07:47:13;;;;;;;36.58;26.35;;;;;;;3.41;72.82;94491.91;5134450;27;20034;-69
2022/04/20 07:52:23;;;;;;;36.58;23.55;;;;;;;3.40;72.41;94492.00;5133207;27;20107;-69
2022/04/20 07:54:49;;;;;;;30.38;21.85;;;;;;;3.39;72.66;94487.78;5132801;27;20027;-69
2022/04/20 07:57:15;;;;;;;30.38;22.23;;;;;;;3.39;72.51;94482.66;5115928;27;20114;-70
2022/04/20 07:59:44;;;;;;;34.10;24.40;;;;;;;3.42;72.00;94490.16;5132762;27;20026;-69
2022/04/20 08:02:09;;;;;;;27.45;21.73;;;;;;;3.40;72.11;94487.72;5132706;27;20114;-70
2022/04/20 08:04:35;;;;;;;26.70;19.52;;;;;;;3.43;72.22;94479.81;5115384;27;20424;-69
2022/04/20 08:07:01;;;;;;;29.58;21.92;;;;;;;3.48;72.23;94482.09;5133998;27;20027;-69
2022/04/20 08:09:26;;;;;;;26.60;20.85;;;;;;;3.50;72.21;94481.09;5115492;27;20031;-69
2022/04/20 08:11:53;;;;;;;37.13;27.83;;;;;;;3.53;72.53;94482.63;5132181;27;20428;-69
2022/04/20 08:14:20;;;;;;;25.33;20.00;;;;;;;3.48;72.03;94480.38;5114869;27;20034;-70
2022/04/20 08:16:46;;;;;;;26.00;19.38;;;;;;;3.44;72.71;94478.06;5133741;27;20645;-69
2022/04/20 08:19:11;;;;;;;25.02;19.13;;;;;;;3.36;72.56;94465.69;5133623;27;20019;-70
2022/04/20 08:21:37;;;;;;;25.10;17.67;;;;;;;3.32;73.10;94459.09;5133706;27;20039;-69
2022/04/20 08:24:03;;;;;;;21.90;17.63;;;;;;;3.23;73.35;94455.34;5132196;27;20480;-69
2022/04/20 08:26:28;;;;;;;26.10;17.67;;;;;;;3.29;72.98;94459.28;5132192;27;20038;-69
2022/04/20 08:28:53;;;;;;;22.02;18.10;;;;;;;3.23;72.10;94444.22;5132149;27;20027;-69
2022/04/20 08:31:19;;;;;;;28.25;18.55;;;;;;;3.17;73.48;94434.31;5133408;27;20042;-69
2022/04/20 08:33:44;;;;;;;26.27;19.25;;;;;;;3.26;74.05;94431.19;5132055;27;20030;-70
2022/04/20 08:36:13;;;;;;;24.95;19.00;;;;;;;3.29;73.62;94433.59;5133300;27;20062;-70
2022/04/20 08:38:39;;;;;;;27.10;19.75;;;;;;;3.38;74.53;94440.75;5132013;27;20026;-69
2022/04/20 08:41:04;;;;;;;27.35;19.63;;;;;;;3.41;74.49;94439.75;5131931;27;20404;-69
2022/04/20 08:43:30;;;;;;;25.17;20.48;;;;;;;3.50;74.48;94452.84;5131779;27;20046;-69
2022/04/20 08:45:55;;;;;;;27.25;21.08;;;;;;;3.55;74.35;94440.53;5114603;27;20035;-69
2022/04/20 08:48:21;;;;;;;31.35;21.45;;;;;;;3.56;73.87;94424.19;5097593;27;20034;-69
2022/04/20 08:50:46;;;;;;;28.90;21.30;;;;;;;3.64;73.83;94435.75;5114370;27;20039;-70
2022/04/20 08:53:12;;;;;;;26.20;20.48;;;;;;;3.69;73.67;94438.88;5132929;27;20027;-70
2022/04/20 08:55:37;;;;;;;27.40;20.17;;;;;;;3.75;73.75;94420.50;5132821;27;20019;-69
2022/04/20 08:58:07;;;;;;;26.23;20.88;;;;;;;3.80;73.90;94409.00;5114205;27;20031;-69
2022/04/20 09:00:32;;;;;;;27.83;21.42;;;;;;;3.79;72.58;94421.97;5131543;27;20437;-70
2022/04/20 09:03:00;;;;;;;27.67;21.13;;;;;;;3.81;73.45;94420.13;5114253;27;20031;-69
2022/04/20 09:05:29;;;;;;;28.77;21.70;;;;;;;3.85;72.98;94419.00;5131362;27;20076;-70
2022/04/20 09:07:55;;;;;;;30.80;22.30;;;;;;;3.89;72.95;94423.03;5114727;27;20084;-70
2022/04/20 09:10:21;;;;;;;27.65;20.15;;;;;;;3.94;72.09;94428.72;5097306;27;20070;-69
2022/04/20 09:12:46;;;;;;;27.30;20.88;;;;;;;3.83;72.08;94418.28;5114179;27;20047;-69
2022/04/20 09:15:14;;;;;;;29.35;20.13;;;;;;;3.89;72.43;94407.59;5131165;27;20030;-70
2022/04/20 09:17:41;;;;;;;26.85;20.25;;;;;;;3.87;72.73;94406.88;5131299;27;20058;-69
2022/04/20 09:20:08;;;;;;;24.85;19.75;;;;;;;3.94;72.86;94392.72;5114230;27;20039;-70
2022/04/20 09:22:35;;;;;;;26.70;20.65;;;;;;;3.96;73.49;94387.50;5130873;27;20420;-69
2022/04/20 09:25:06;;;;;;;28.05;20.92;;;;;;;3.83;74.53;94387.44;5130268;27;20026;-69
2022/04/20 09:27:33;;;;;;;28.30;19.25;;;;;;;3.98;74.76;94376.19;5131287;27;20039;-69
2022/04/20 09:29:59;;;;;;;28.92;21.42;;;;;;;4.14;74.61;94375.19;5130924;27;20530;-69
2022/04/20 09:32:38;;;;;;;30.17;22.20;;;;;;;4.17;74.27;94354.44;5131070;27;20032;-70
2022/04/20 09:35:06;;;;;;;30.10;21.92;;;;;;;4.24;74.91;94342.84;5130911;27;20031;-69
2022/04/20 09:37:32;;;;;;;28.85;22.88;;;;;;;4.51;75.43;94362.50;5132514;27;20034;-69
2022/04/20 09:39:58;;;;;;;36.55;25.55;;;;;;;4.70;75.51;94373.22;5130851;27;20039;-69
2022/04/20 09:42:24;;;;;;;29.73;21.48;;;;;;;4.73;74.81;94356.75;5113835;27;20036;-70
2022/04/20 09:45:00;;;;;;;30.33;21.83;;;;;;;4.82;73.82;94363.84;5113724;27;20027;-69
2022/04/20 09:50:24;;;;;;;27.48;20.67;;;;;;;4.81;72.77;94345.03;5130972;27;20061;-70
2022/04/20 09:52:50;;;;;;;34.35;21.40;;;;;;;4.86;72.77;94349.88;5114054;27;20042;-69
2022/04/20 09:55:26;;;;;;;31.63;22.45;;;;;;;4.86;73.36;94340.38;5096927;27;20043;-69
2022/04/20 09:57:52;;;;;;;27.00;20.60;;;;;;;4.85;73.11;94328.47;5096622;28;20122;-70
2022/04/20 10:00:17;;;;;;;26.05;19.52;;;;;;;4.86;72.86;94342.97;5113527;28;20541;-70
2022/04/20 10:02:49;;;;;;;26.52;19.65;;;;;;;4.87;73.14;94331.72;5130715;28;20036;-69
2022/04/20 10:05:15;;;;;;;38.58;26.48;;;;;;;4.88;72.97;94337.72;5131818;27;20054;-69
2022/04/20 10:07:41;;;;;;;30.75;22.27;;;;;;;4.85;73.20;94330.22;5130687;28;20059;-70
2022/04/20 10:10:07;;;;;;;27.55;22.35;;;;;;;4.93;73.35;94348.50;5113751;28;20034;-70
2022/04/20 10:12:32;;;;;;;37.78;30.92;;;;;;;4.97;72.95;94336.28;5130294;28;20126;-69
2022/04/20 10:17:46;;;;;;;29.60;21.50;;;;;;;5.06;73.29;94325.34;5130932;28;20502;-69
2022/04/20 10:20:12;;;;;;;27.05;20.48;;;;;;;5.10;72.68;94330.19;5130479;28;20027;-69
2022/04/20 10:22:37;;;;;;;25.45;18.00;;;;;;;5.10;72.75;94324.22;5113541;28;20027;-70
2022/04/20 10:25:04;;;;;;;25.00;17.73;;;;;;;5.11;71.56;94338.72;5096293;28;20540;-71
2022/04/20 10:27:47;;;;;;;25.33;18.73;;;;;;;5.15;72.21;94327.25;5113411;28;20031;-69
2022/04/20 10:30:18;;;;;;;25.05;18.80;;;;;;;5.15;73.38;94322.97;5130532;28;20035;-69
2022/04/20 10:33:23;;;;;;;23.52;19.08;;;;;;;5.20;73.88;94301.22;5113672;28;20031;-69
2022/04/20 10:35:59;;;;;;;26.90;20.10;;;;;;;5.24;74.23;94311.19;5122061;27;20043;-69
2022/04/20 10:38:27;;;;;;;26.35;19.45;;;;;;;5.32;74.08;94297.75;5134292;27;20023;-70
2022/04/20 10:41:05;;;;;;;25.92;19.55;;;;;;;5.38;73.88;94300.75;5135403;27;20560;-70
2022/04/20 10:43:31;;;;;;;25.60;19.98;;;;;;;5.46;73.87;94301.94;5135347;27;20452;-69
2022/04/20 10:46:16;;;;;;;22.17;17.52;;;;;;;5.54;73.19;94292.75;5116991;27;20031;-70
2022/04/20 10:48:58;;;;;;;20.90;16.90;;;;;;;5.58;72.25;94281.28;5134154;27;20070;-70
2022/04/20 10:51:30;;;;;;;20.02;15.93;;;;;;;5.67;72.86;94294.44;5135492;27;20031;-70
2022/04/20 10:54:24;;;;;;;15.48;12.98;;;;;;;5.61;72.71;94267.38;5135261;27;20146;-70
2022/04/20 10:56:49;;;;;;;16.27;12.93;;;;;;;5.77;72.33;94285.94;5133924;27;20385;-69
2022/04/20 10:59:15;;;;;;;16.23;13.85;;;;;;;5.80;71.69;94275.41;5116651;27;20080;-69
2022/04/20 11:01:59;;;;;;;16.33;13.02;;;;;;;5.78;70.33;94284.19;5116761;27;20030;-70
2022/04/20 11:04:44;;;;;;;12.77;10.68;;;;;;;5.75;69.58;94272.34;5135004;27;20031;-70
2022/04/20 11:07:10;;;;;;;12.75;10.82;;;;;;;5.75;68.96;94274.09;5135219;27;20118;-70
2022/04/20 11:09:52;;;;;;;12.77;10.68;;;;;;;5.79;69.05;94278.09;5134950;27;20114;-70
2022/04/20 11:21:02;;;;;;;9.30;8.30;;;;;;;5.68;70.88;94289.16;5134571;27;20034;-70
2022/04/20 11:23:50;;;;;;;9.45;7.53;;;;;;;5.65;70.48;94273.94;5134621;27;20027;-69
2022/04/20 11:26:20;;;;;;;9.27;7.78;;;;;;;5.57;70.49;94259.03;5133254;27;20106;-69
2022/04/20 11:28:45;;;;;;;8.02;7.10;;;;;;;5.63;69.30;94267.25;5099231;27;20034;-70
2022/04/20 11:31:11;;;;;;;8.32;6.85;;;;;;;5.62;69.15;94269.00;5133244;27;20024;-70
2022/04/20 11:33:37;;;;;;;9.70;7.70;;;;;;;5.58;69.76;94263.25;5133226;27;20050;-70
2022/04/20 11:36:02;;;;;;;8.20;7.35;;;;;;;5.59;71.48;94264.06;5133024;27;20408;-69
2022/04/20 11:38:41;;;;;;;12.55;8.95;;;;;;;5.65;70.71;94268.78;5116116;27;20034;-69
2022/04/20 11:41:07;;;;;;;9.52;8.25;;;;;;;5.61;71.40;94269.94;5133029;27;20031;-70
2022/04/20 11:43:33;;;;;;;9.23;8.05;;;;;;;5.60;71.47;94265.72;5115983;27;20047;-70
2022/04/20 11:46:00;;;;;;;9.85;7.75;;;;;;;5.66;70.80;94278.16;5134202;27;20374;-69
2022/04/20 11:48:25;;;;;;;9.70;8.20;;;;;;;5.66;71.59;94270.44;5132282;27;20076;-70
2022/04/20 11:50:57;;;;;;;12.25;10.68;;;;;;;5.67;71.75;94266.91;5115621;27;20039;-70
2022/04/20 11:53:40;;;;;;;36.45;26.38;;;;;;;5.71;71.81;94278.66;5134387;27;20027;-69
2022/04/20 11:56:12;;;;;;;17.67;13.35;;;;;;;5.73;71.62;94275.97;5115975;27;20714;-70
2022/04/20 11:58:38;;;;;;;17.08;11.75;;;;;;;5.71;71.84;94283.81;5116646;27;20054;-70
2022/04/20 12:01:04;;;;;;;11.65;9.35;;;;;;;5.60;71.51;94282.00;5132640;27;20035;-69
2022/04/20 12:03:36;;;;;;;10.15;8.20;;;;;;;5.48;71.26;94287.19;5132612;27;20035;-69